sensor_id;sensor_type;location;lat;lon;timestamp;pressure;altitude;pressure_sealevel;temperature;humidity
46129;BME280;31860;45.186;5.790;2023-04-26T00:01:16;99037.44;;;15.34;49.70
46129;BME280;31860;45.186;5.790;2023-04-26T00:03:41;99046.25;;;15.33;49.59
46129;BME280;31860;45.186;5.790;2023-04-26T00:06:07;99050.66;;;15.31;49.46
46129;BME280;31860;45.186;5.790;2023-04-26T00:08:38;99047.16;;;15.30;49.51
46129;BME280;31860;45.186;5.790;2023-04-26T00:11:03;99055.13;;;15.26;49.54
46129;BME280;31860;45.186;5.790;2023-04-26T00:13:29;99063.91;;;15.26;49.72
46129;BME280;31860;45.186;5.790;2023-04-26T00:15:54;99065.69;;;15.24;49.81
46129;BME280;31860;45.186;5.790;2023-04-26T00:18:20;99060.47;;;15.23;49.88
46129;BME280;31860;45.186;5.790;2023-04-26T00:20:45;99059.63;;;15.20;49.97
46129;BME280;31860;45.186;5.790;2023-04-26T00:23:11;99065.88;;;15.16;50.03
46129;BME280;31860;45.186;5.790;2023-04-26T00:25:36;99070.28;;;15.14;50.11
46129;BME280;31860;45.186;5.790;2023-04-26T00:28:02;99070.31;;;15.13;50.24
46129;BME280;31860;45.186;5.790;2023-04-26T00:30:28;99072.06;;;15.12;50.13
46129;BME280;31860;45.186;5.790;2023-04-26T00:32:54;99071.19;;;15.13;50.28
46129;BME280;31860;45.186;5.790;2023-04-26T00:35:19;99075.63;;;15.11;50.21
46129;BME280;31860;45.186;5.790;2023-04-26T00:37:45;99072.16;;;15.09;50.40
46129;BME280;31860;45.186;5.790;2023-04-26T00:40:11;99075.66;;;15.08;50.42
46129;BME280;31860;45.186;5.790;2023-04-26T00:42:38;99075.69;;;15.07;50.54
46129;BME280;31860;45.186;5.790;2023-04-26T00:45:05;99078.38;;;15.05;50.65
46129;BME280;31860;45.186;5.790;2023-04-26T00:47:31;99078.41;;;15.04;50.64
46129;BME280;31860;45.186;5.790;2023-04-26T00:49:58;99080.22;;;15.00;50.61
46129;BME280;31860;45.186;5.790;2023-04-26T00:52:24;99088.16;;;14.97;50.84
46129;BME280;31860;45.186;5.790;2023-04-26T00:54:50;99083.84;;;14.93;50.86
46129;BME280;31860;45.186;5.790;2023-04-26T00:57:16;99091.78;;;14.92;50.85
46129;BME280;31860;45.186;5.790;2023-04-26T00:59:41;99087.47;;;14.89;50.80
46129;BME280;31860;45.186;5.790;2023-04-26T01:02:07;99099.75;;;14.89;50.94
46129;BME280;31860;45.186;5.790;2023-04-26T01:04:33;99094.53;;;14.87;50.89
46129;BME280;31860;45.186;5.790;2023-04-26T01:07:02;99092.84;;;14.83;51.12
46129;BME280;31860;45.186;5.790;2023-04-26T01:09:30;99097.22;;;14.83;51.09
46129;BME280;31860;45.186;5.790;2023-04-26T01:11:56;99104.31;;;14.79;51.01
46129;BME280;31860;45.186;5.790;2023-04-26T01:14:23;99108.69;;;14.79;51.12
46129;BME280;31860;45.186;5.790;2023-04-26T01:16:49;99107.81;;;14.78;51.05
46129;BME280;31860;45.186;5.790;2023-04-26T01:19:15;99105.22;;;14.77;51.04
46129;BME280;31860;45.186;5.790;2023-04-26T01:21:41;99101.75;;;14.75;51.13
46129;BME280;31860;45.186;5.790;2023-04-26T01:24:09;99106.16;;;14.74;51.18
46129;BME280;31860;45.186;5.790;2023-04-26T01:26:35;99114.06;;;14.73;51.21
46129;BME280;31860;45.186;5.790;2023-04-26T01:29:18;99104.44;;;14.72;51.66
46129;BME280;31860;45.186;5.790;2023-04-26T01:31:45;99109.75;;;14.69;51.35
46129;BME280;31860;45.186;5.790;2023-04-26T01:34:10;99115.00;;;14.69;51.43
46129;BME280;31860;45.186;5.790;2023-04-26T01:36:36;99104.53;;;14.66;51.54
46129;BME280;31860;45.186;5.790;2023-04-26T01:39:02;99108.94;;;14.65;51.67
46129;BME280;31860;45.186;5.790;2023-04-26T01:41:28;99114.22;;;14.64;51.79
46129;BME280;31860;45.186;5.790;2023-04-26T01:43:53;99113.38;;;14.62;51.75
46129;BME280;31860;45.186;5.790;2023-04-26T01:46:19;99106.44;;;14.59;51.82
46129;BME280;31860;45.186;5.790;2023-04-26T01:48:45;99095.91;;;14.58;51.72
46129;BME280;31860;45.186;5.790;2023-04-26T01:51:11;99095.06;;;14.57;51.85
46129;BME280;31860;45.186;5.790;2023-04-26T01:53:36;99094.22;;;14.55;52.18
46129;BME280;31860;45.186;5.790;2023-04-26T01:56:02;99092.47;;;14.54;52.14
46129;BME280;31860;45.186;5.790;2023-04-26T01:58:28;99092.56;;;14.51;52.05
46129;BME280;31860;45.186;5.790;2023-04-26T02:00:55;99096.97;;;14.49;52.09
46129;BME280;31860;45.186;5.790;2023-04-26T02:03:20;99099.63;;;14.48;52.15
46129;BME280;31860;45.186;5.790;2023-04-26T02:05:46;99101.44;;;14.44;52.16
46129;BME280;31860;45.186;5.790;2023-04-26T02:08:12;99106.69;;;14.44;52.41
46129;BME280;31860;45.186;5.790;2023-04-26T02:10:37;99096.28;;;14.38;52.52
46129;BME280;31860;45.186;5.790;2023-04-26T02:13:03;99102.44;;;14.36;52.57
46129;BME280;31860;45.186;5.790;2023-04-26T02:15:29;99100.69;;;14.36;52.45
46129;BME280;31860;45.186;5.790;2023-04-26T02:17:55;99111.22;;;14.33;52.54
46129;BME280;31860;45.186;5.790;2023-04-26T02:20:21;99111.31;;;14.30;52.79
46129;BME280;31860;45.186;5.790;2023-04-26T02:22:46;99095.56;;;14.29;52.84
46129;BME280;31860;45.186;5.790;2023-04-26T02:25:11;99083.38;;;14.23;52.86
46129;BME280;31860;45.186;5.790;2023-04-26T02:27:37;99096.53;;;14.21;52.92
46129;BME280;31860;45.186;5.790;2023-04-26T02:30:03;99097.41;;;14.20;52.97
46129;BME280;31860;45.186;5.790;2023-04-26T02:32:28;99100.09;;;14.16;53.10
46129;BME280;31860;45.186;5.790;2023-04-26T02:34:54;99094.84;;;14.16;52.99
46129;BME280;31860;45.186;5.790;2023-04-26T02:37:20;99094.91;;;14.13;53.21
46129;BME280;31860;45.186;5.790;2023-04-26T02:39:49;99092.31;;;14.11;53.37
46129;BME280;31860;45.186;5.790;2023-04-26T02:42:15;99101.94;;;14.11;53.23
46129;BME280;31860;45.186;5.790;2023-04-26T02:44:41;99104.66;;;14.06;53.40
46129;BME280;31860;45.186;5.790;2023-04-26T02:47:07;99098.53;;;14.06;53.59
46129;BME280;31860;45.186;5.790;2023-04-26T02:49:33;99095.94;;;14.04;53.52
46129;BME280;31860;45.186;5.790;2023-04-26T02:51:58;99092.47;;;14.02;53.55
46129;BME280;31860;45.186;5.790;2023-04-26T02:54:24;99091.59;;;14.02;53.70
46129;BME280;31860;45.186;5.790;2023-04-26T02:56:50;99072.34;;;14.00;53.76
46129;BME280;31860;45.186;5.790;2023-04-26T02:59:15;99079.31;;;14.01;53.70
46129;BME280;31860;45.186;5.790;2023-04-26T03:01:41;99081.94;;;14.01;53.86
46129;BME280;31860;45.186;5.790;2023-04-26T03:04:07;99085.50;;;13.98;53.67
46129;BME280;31860;45.186;5.790;2023-04-26T03:06:32;99078.50;;;13.99;53.79
46129;BME280;31860;45.186;5.790;2023-04-26T03:08:57;99084.66;;;13.96;53.73
46129;BME280;31860;45.186;5.790;2023-04-26T03:11:23;99081.13;;;13.99;53.69
46129;BME280;31860;45.186;5.790;2023-04-26T03:13:48;99089.91;;;13.96;53.78
46129;BME280;31860;45.186;5.790;2023-04-26T03:16:14;99089.03;;;13.96;53.79
46129;BME280;31860;45.186;5.790;2023-04-26T03:18:40;99094.28;;;13.96;53.84
46129;BME280;31860;45.186;5.790;2023-04-26T03:21:06;99086.44;;;13.94;53.92
46129;BME280;31860;45.186;5.790;2023-04-26T03:23:31;99079.50;;;13.90;53.87
46129;BME280;31860;45.186;5.790;2023-04-26T03:25:56;99079.53;;;13.89;54.22
46129;BME280;31860;45.186;5.790;2023-04-26T03:28:23;99082.19;;;13.87;54.05
46129;BME280;31860;45.186;5.790;2023-04-26T03:30:48;99087.47;;;13.84;54.05
46129;BME280;31860;45.186;5.790;2023-04-26T03:33:16;99089.25;;;13.82;54.14
46129;BME280;31860;45.186;5.790;2023-04-26T03:35:42;99085.78;;;13.82;53.98
46129;BME280;31860;45.186;5.790;2023-04-26T03:38:07;99088.41;;;13.80;54.22
46129;BME280;31860;45.186;5.790;2023-04-26T03:40:33;99077.91;;;13.80;54.17
46129;BME280;31860;45.186;5.790;2023-04-26T03:42:58;99073.56;;;13.79;54.26
46129;BME280;31860;45.186;5.790;2023-04-26T03:45:24;99079.69;;;13.80;54.19
46129;BME280;31860;45.186;5.790;2023-04-26T03:47:51;99079.69;;;13.80;54.02
46129;BME280;31860;45.186;5.790;2023-04-26T03:50:16;99085.78;;;13.82;53.98
46129;BME280;31860;45.186;5.790;2023-04-26T03:52:42;99084.91;;;13.81;54.14
46129;BME280;31860;45.186;5.790;2023-04-26T03:55:08;99084.91;;;13.81;54.32
46129;BME280;31860;45.186;5.790;2023-04-26T03:57:35;99077.06;;;13.80;54.53
46129;BME280;31860;45.186;5.790;2023-04-26T04:00:01;99085.81;;;13.79;54.62
46129;BME280;31860;45.186;5.790;2023-04-26T04:02:26;99084.94;;;13.77;54.61
46129;BME280;31860;45.186;5.790;2023-04-26T04:04:52;99088.47;;;13.76;54.58
46129;BME280;31860;45.186;5.790;2023-04-26T04:07:17;99090.25;;;13.74;54.68
46129;BME280;31860;45.186;5.790;2023-04-26T04:09:43;99094.59;;;13.75;55.00
46129;BME280;31860;45.186;5.790;2023-04-26T04:12:08;99099.00;;;13.73;54.92
46129;BME280;31860;45.186;5.790;2023-04-26T04:14:34;99085.03;;;13.71;54.74
46129;BME280;31860;45.186;5.790;2023-04-26T04:16:59;99092.91;;;13.71;54.80
46129;BME280;31860;45.186;5.790;2023-04-26T04:19:25;99090.34;;;13.68;54.77
46129;BME280;31860;45.186;5.790;2023-04-26T04:21:50;99086.88;;;13.66;54.66
46129;BME280;31860;45.186;5.790;2023-04-26T04:24:15;99081.72;;;13.61;54.67
46129;BME280;31860;45.186;5.790;2023-04-26T04:26:41;99101.78;;;13.62;54.76
46129;BME280;31860;45.186;5.790;2023-04-26T04:29:06;99100.88;;;13.63;54.46
46129;BME280;31860;45.186;5.790;2023-04-26T04:31:35;99106.13;;;13.63;54.69
46129;BME280;31860;45.186;5.790;2023-04-26T04:34:01;99106.97;;;13.68;54.77
46129;BME280;31860;45.186;5.790;2023-04-26T04:36:26;99115.72;;;13.67;54.59
46129;BME280;31860;45.186;5.790;2023-04-26T04:38:52;99107.81;;;13.70;54.76
46129;BME280;31860;45.186;5.790;2023-04-26T04:41:18;99112.19;;;13.70;54.85
46129;BME280;31860;45.186;5.790;2023-04-26T04:43:46;99120.09;;;13.68;54.81
46129;BME280;31860;45.186;5.790;2023-04-26T04:46:12;99110.50;;;13.66;55.04
46129;BME280;31860;45.186;5.790;2023-04-26T04:48:37;99123.63;;;13.64;54.96
46129;BME280;31860;45.186;5.790;2023-04-26T04:51:03;99127.16;;;13.65;55.13
46129;BME280;31860;45.186;5.790;2023-04-26T04:53:29;99139.44;;;13.61;55.04
46129;BME280;31860;45.186;5.790;2023-04-26T04:55:55;99135.88;;;13.64;54.69
46129;BME280;31860;45.186;5.790;2023-04-26T04:58:21;99146.44;;;13.61;54.92
46129;BME280;31860;45.186;5.790;2023-04-26T05:00:50;99145.59;;;13.59;54.69
46129;BME280;31860;45.186;5.790;2023-04-26T05:03:18;99144.69;;;13.60;54.64
46129;BME280;31860;45.186;5.790;2023-04-26T05:05:44;99147.34;;;13.58;54.68
46129;BME280;31860;45.186;5.790;2023-04-26T05:08:10;99157.81;;;13.60;54.44
46129;BME280;31860;45.186;5.790;2023-04-26T05:10:35;99157.84;;;13.57;54.90
46129;BME280;31860;45.186;5.790;2023-04-26T05:13:01;99156.13;;;13.57;55.13
46129;BME280;31860;45.186;5.790;2023-04-26T05:15:26;99164.84;;;13.58;55.40
46129;BME280;31860;45.186;5.790;2023-04-26T05:17:52;99166.59;;;13.59;55.71
46129;BME280;31860;45.186;5.790;2023-04-26T05:20:20;99164.81;;;13.61;55.90
46129;BME280;31860;45.186;5.790;2023-04-26T05:22:45;99171.75;;;13.63;56.11
46129;BME280;31860;45.186;5.790;2023-04-26T05:25:11;99170.84;;;13.66;56.56
46129;BME280;31860;45.186;5.790;2023-04-26T05:27:38;99170.00;;;13.67;56.86
46129;BME280;31860;45.186;5.790;2023-04-26T05:30:05;99182.16;;;13.71;56.88
46129;BME280;31860;45.186;5.790;2023-04-26T05:32:30;99179.53;;;13.72;56.17
46129;BME280;31860;45.186;5.790;2023-04-26T05:34:56;99183.00;;;13.76;56.38
46129;BME280;31860;45.186;5.790;2023-04-26T05:37:22;99176.81;;;13.80;55.77
46129;BME280;31860;45.186;5.790;2023-04-26T05:39:48;99174.19;;;13.80;55.73
46129;BME280;31860;45.186;5.790;2023-04-26T05:42:14;99190.78;;;13.82;55.65
46129;BME280;31860;45.186;5.790;2023-04-26T05:44:39;99182.03;;;13.81;55.40
46129;BME280;31860;45.186;5.790;2023-04-26T05:47:05;99189.88;;;13.83;55.58
46129;BME280;31860;45.186;5.790;2023-04-26T05:49:31;99186.41;;;13.81;55.57
46129;BME280;31860;45.186;5.790;2023-04-26T05:51:58;99175.88;;;13.84;55.68
46129;BME280;31860;45.186;5.790;2023-04-26T05:54:24;99173.25;;;13.85;55.84
46129;BME280;31860;45.186;5.790;2023-04-26T05:56:50;99174.94;;;13.88;55.67
46129;BME280;31860;45.186;5.790;2023-04-26T05:59:15;99177.59;;;13.86;55.99
46129;BME280;31860;45.186;5.790;2023-04-26T06:01:41;99173.16;;;13.91;56.02
46129;BME280;31860;45.186;5.790;2023-04-26T06:04:06;99173.13;;;13.93;56.07
46129;BME280;31860;45.186;5.790;2023-04-26T06:06:32;99178.31;;;13.99;56.41
46129;BME280;31860;45.186;5.790;2023-04-26T06:08:57;99183.50;;;14.02;55.99
46129;BME280;31860;45.186;5.790;2023-04-26T06:11:23;99188.69;;;14.08;56.04
46129;BME280;31860;45.186;5.790;2023-04-26T06:13:49;99187.75;;;14.12;55.99
46129;BME280;31860;45.186;5.790;2023-04-26T06:16:14;99179.78;;;14.16;55.93
46129;BME280;31860;45.186;5.790;2023-04-26T06:18:40;99180.59;;;14.21;56.29
46129;BME280;31860;45.186;5.790;2023-04-26T06:21:05;99192.81;;;14.27;56.56
46129;BME280;31860;45.186;5.790;2023-04-26T06:23:31;99189.22;;;14.33;56.97
46129;BME280;31860;45.186;5.790;2023-04-26T06:25:57;99191.72;;;14.39;57.71
46129;BME280;31860;45.186;5.790;2023-04-26T06:28:23;99186.38;;;14.45;57.79
46129;BME280;31860;45.186;5.790;2023-04-26T06:30:48;99183.69;;;14.49;57.53
46129;BME280;31860;45.186;5.790;2023-04-26T06:33:14;99188.84;;;14.57;57.53
46129;BME280;31860;45.186;5.790;2023-04-26T06:35:40;99188.78;;;14.60;57.31
46129;BME280;31860;45.186;5.790;2023-04-26T06:38:05;99185.13;;;14.68;57.26
46129;BME280;31860;45.186;5.790;2023-04-26T06:40:31;99185.03;;;14.73;56.98
46129;BME280;31860;45.186;5.790;2023-04-26T06:42:57;99184.06;;;14.78;57.04
46129;BME280;31860;45.186;5.790;2023-04-26T06:45:22;99183.97;;;14.84;57.30
46129;BME280;31860;45.186;5.790;2023-04-26T06:47:50;99175.06;;;14.91;57.26
46129;BME280;31860;45.186;5.790;2023-04-26T06:50:17;99168.88;;;14.97;56.50
46129;BME280;31860;45.186;5.790;2023-04-26T06:52:42;99180.94;;;15.07;56.44
46129;BME280;31860;45.186;5.790;2023-04-26T06:55:08;99180.78;;;15.14;56.36
46129;BME280;31860;45.186;5.790;2023-04-26T06:57:34;99191.19;;;15.22;56.63
46129;BME280;31860;45.186;5.790;2023-04-26T06:59:59;99192.78;;;15.31;56.69
46129;BME280;31860;45.186;5.790;2023-04-26T07:02:25;99188.25;;;15.37;56.59
46129;BME280;31860;45.186;5.790;2023-04-26T07:04:50;99183.81;;;15.42;56.03
46129;BME280;31860;45.186;5.790;2023-04-26T07:07:16;99175.78;;;15.48;55.71
46129;BME280;31860;45.186;5.790;2023-04-26T07:09:42;99178.28;;;15.54;55.54
46129;BME280;31860;45.186;5.790;2023-04-26T07:12:11;99166.75;;;15.60;55.37
46129;BME280;31860;45.186;5.790;2023-04-26T07:14:36;99172.75;;;15.68;55.28
46129;BME280;31860;45.186;5.790;2023-04-26T07:17:06;99166.53;;;15.72;54.77
46129;BME280;31860;45.186;5.790;2023-04-26T07:19:31;99163.72;;;15.79;54.78
46129;BME280;31860;45.186;5.790;2023-04-26T07:21:57;99160.97;;;15.84;54.34
46129;BME280;31860;45.186;5.790;2023-04-26T07:24:22;99172.25;;;15.90;54.14
46129;BME280;31860;45.186;5.790;2023-04-26T07:26:47;99169.53;;;15.95;53.84
46129;BME280;31860;45.186;5.790;2023-04-26T07:29:13;99164.97;;;16.01;53.60
46129;BME280;31860;45.186;5.790;2023-04-26T07:31:38;99147.28;;;16.08;53.15
46129;BME280;31860;45.186;5.790;2023-04-26T07:34:04;99149.75;;;16.14;53.03
46129;BME280;31860;45.186;5.790;2023-04-26T07:36:29;99141.72;;;16.20;53.01
46129;BME280;31860;45.186;5.790;2023-04-26T07:38:55;99145.09;;;16.27;53.15
46129;BME280;31860;45.186;5.790;2023-04-26T07:41:21;99137.88;;;16.33;53.16
46129;BME280;31860;45.186;5.790;2023-04-26T07:43:46;99136.84;;;16.39;53.21
46129;BME280;31860;45.186;5.790;2023-04-26T07:46:11;99146.38;;;16.46;52.80
46129;BME280;31860;45.186;5.790;2023-04-26T07:48:37;99138.38;;;16.50;52.77
46129;BME280;31860;45.186;5.790;2023-04-26T07:51:09;99126.81;;;16.56;52.09
46129;BME280;31860;45.186;5.790;2023-04-26T07:53:35;99132.72;;;16.65;52.24
46129;BME280;31860;45.186;5.790;2023-04-26T07:56:03;99136.97;;;16.71;52.01
46129;BME280;31860;45.186;5.790;2023-04-26T07:58:29;99130.66;;;16.76;51.64
46129;BME280;31860;45.186;5.790;2023-04-26T08:00:57;99135.78;;;16.82;51.43
46129;BME280;31860;45.186;5.790;2023-04-26T08:03:22;99126.88;;;16.86;50.42
46129;BME280;31860;45.186;5.790;2023-04-26T08:05:48;99121.47;;;16.92;50.34
46129;BME280;31860;45.186;5.790;2023-04-26T08:08:13;99127.50;;;16.96;49.63
46129;BME280;31860;45.186;5.790;2023-04-26T08:10:39;99125.66;;;16.99;49.38
46129;BME280;31860;45.186;5.790;2023-04-26T08:13:05;99123.75;;;17.04;49.13
46129;BME280;31860;45.186;5.790;2023-04-26T08:15:31;99126.28;;;17.09;48.74
46129;BME280;31860;45.186;5.790;2023-04-26T08:17:56;99131.50;;;17.11;48.52
46129;BME280;31860;45.186;5.790;2023-04-26T08:20:22;99123.53;;;17.12;48.67
46129;BME280;31860;45.186;5.790;2023-04-26T08:22:47;99131.25;;;17.20;48.41
46129;BME280;31860;45.186;5.790;2023-04-26T08:25:14;99126.69;;;17.26;48.27
46129;BME280;31860;45.186;5.790;2023-04-26T08:27:39;99130.91;;;17.32;47.77
46129;BME280;31860;45.186;5.790;2023-04-26T08:30:05;99131.63;;;17.38;47.34
46129;BME280;31860;45.186;5.790;2023-04-26T08:32:31;99137.69;;;17.42;47.08
46129;BME280;31860;45.186;5.790;2023-04-26T08:34:58;99136.63;;;17.49;46.83
46129;BME280;31860;45.186;5.790;2023-04-26T08:37:24;99141.78;;;17.53;46.51
46129;BME280;31860;45.186;5.790;2023-04-26T08:39:49;99136.28;;;17.61;46.55
46129;BME280;31860;45.186;5.790;2023-04-26T08:42:16;99139.59;;;17.67;46.80
46129;BME280;31860;45.186;5.790;2023-04-26T08:44:43;99137.66;;;17.74;46.96
46129;BME280;31860;45.186;5.790;2023-04-26T08:47:16;99141.00;;;17.79;46.09
46129;BME280;31860;45.186;5.790;2023-04-26T08:49:46;99137.25;;;17.86;45.53
46129;BME280;31860;45.186;5.790;2023-04-26T08:52:17;99131.75;;;17.93;45.47
46129;BME280;31860;45.186;5.790;2023-04-26T08:54:48;99139.44;;;18.01;45.34
46129;BME280;31860;45.186;5.790;2023-04-26T08:57:14;99139.25;;;18.07;45.18
46129;BME280;31860;45.186;5.790;2023-04-26T08:59:41;99137.31;;;18.14;45.26
46129;BME280;31860;45.186;5.790;2023-04-26T09:02:09;99137.06;;;18.21;45.22
46129;BME280;31860;45.186;5.790;2023-04-26T09:04:35;99131.59;;;18.26;45.11
46129;BME280;31860;45.186;5.790;2023-04-26T09:07:02;99133.19;;;18.31;44.92
46129;BME280;31860;45.186;5.790;2023-04-26T09:09:34;99135.69;;;18.36;44.11
46129;BME280;31860;45.186;5.790;2023-04-26T09:12:02;99127.59;;;18.40;44.52
46129;BME280;31860;45.186;5.790;2023-04-26T09:14:28;99118.59;;;18.47;44.09
46129;BME280;31860;45.186;5.790;2023-04-26T09:16:54;99117.47;;;18.54;44.28
46129;BME280;31860;45.186;5.790;2023-04-26T09:19:39;99122.56;;;18.60;43.07
46129;BME280;31860;45.186;5.790;2023-04-26T09:22:08;99121.44;;;18.67;44.18
46129;BME280;31860;45.186;5.790;2023-04-26T09:24:47;99114.19;;;18.74;43.54
46129;BME280;31860;45.186;5.790;2023-04-26T09:27:14;99114.75;;;18.82;44.15
46129;BME280;31860;45.186;5.790;2023-04-26T09:29:41;99113.69;;;18.87;44.23
46129;BME280;31860;45.186;5.790;2023-04-26T09:32:20;99119.56;;;18.96;44.40
46129;BME280;31860;45.186;5.790;2023-04-26T09:34:46;99104.50;;;18.98;43.95
46129;BME280;31860;45.186;5.790;2023-04-26T09:37:11;99109.53;;;19.05;43.69
46129;BME280;31860;45.186;5.790;2023-04-26T09:39:40;99097.84;;;19.11;44.20
46129;BME280;31860;45.186;5.790;2023-04-26T09:42:06;99106.34;;;19.20;43.83
46129;BME280;31860;45.186;5.790;2023-04-26T09:44:32;99104.28;;;19.28;43.55
46129;BME280;31860;45.186;5.790;2023-04-26T09:49:27;99095.97;;;19.39;42.36
46129;BME280;31860;45.186;5.790;2023-04-26T09:52:04;99093.09;;;19.45;41.42
46129;BME280;31860;45.186;5.790;2023-04-26T09:57:05;99089.19;;;19.55;41.67
46129;BME280;31860;45.186;5.790;2023-04-26T10:02:12;99086.91;;;19.67;41.79
46129;BME280;31860;45.186;5.790;2023-04-26T10:04:38;99086.63;;;19.75;42.40
46129;BME280;31860;45.186;5.790;2023-04-26T10:07:03;99087.19;;;19.83;41.85
46129;BME280;31860;45.186;5.790;2023-04-26T10:09:30;99082.41;;;19.93;41.76
46129;BME280;31860;45.186;5.790;2023-04-26T10:11:57;99067.09;;;19.99;41.66
46129;BME280;31860;45.186;5.790;2023-04-26T10:14:23;99068.56;;;20.06;41.53
46129;BME280;31860;45.186;5.790;2023-04-26T10:16:49;99074.50;;;20.13;41.11
46129;BME280;31860;45.186;5.790;2023-04-26T10:19:14;99073.28;;;20.21;40.69
46129;BME280;31860;45.186;5.790;2023-04-26T10:21:41;99066.91;;;20.27;40.08
46129;BME280;31860;45.186;5.790;2023-04-26T10:24:07;99057.00;;;20.30;39.80
46129;BME280;31860;45.186;5.790;2023-04-26T10:26:52;99058.47;;;20.37;38.43
46129;BME280;31860;45.186;5.790;2023-04-26T10:29:24;99052.78;;;20.46;39.18
46129;BME280;31860;45.186;5.790;2023-04-26T10:34:35;99045.13;;;20.60;39.86
46129;BME280;31860;45.186;5.790;2023-04-26T10:37:14;99034.97;;;20.70;39.21
46129;BME280;31860;45.186;5.790;2023-04-26T10:39:45;99034.63;;;20.77;39.05
46129;BME280;31860;45.186;5.790;2023-04-26T10:42:20;99033.56;;;20.82;38.02
46129;BME280;31860;45.186;5.790;2023-04-26T10:44:50;99025.47;;;20.85;39.33
46129;BME280;31860;45.186;5.790;2023-04-26T10:47:29;99023.59;;;20.87;38.66
46129;BME280;31860;45.186;5.790;2023-04-26T10:50:15;99016.28;;;20.92;38.80
46129;BME280;31860;45.186;5.790;2023-04-26T10:55:40;99011.66;;;20.97;39.09
46129;BME280;31860;45.186;5.790;2023-04-26T11:01:05;98992.75;;;21.04;38.25
46129;BME280;31860;45.186;5.790;2023-04-26T11:03:31;98999.69;;;21.07;39.33
46129;BME280;31860;45.186;5.790;2023-04-26T11:05:57;98988.16;;;21.08;38.87
46129;BME280;31860;45.186;5.790;2023-04-26T11:08:27;98989.06;;;21.07;37.67
46129;BME280;31860;45.186;5.790;2023-04-26T11:11:04;98984.69;;;21.06;37.15
46129;BME280;31860;45.186;5.790;2023-04-26T11:13:35;98978.50;;;21.05;38.47
46129;BME280;31860;45.186;5.790;2023-04-26T11:16:02;98971.41;;;21.06;37.98
46129;BME280;31860;45.186;5.790;2023-04-26T11:18:29;98964.34;;;21.05;37.79
46129;BME280;31860;45.186;5.790;2023-04-26T11:20:56;98968.09;;;21.01;37.40
46129;BME280;31860;45.186;5.790;2023-04-26T11:23:23;98969.91;;;20.99;37.03
46129;BME280;31860;45.186;5.790;2023-04-26T11:25:48;98957.72;;;20.95;36.96
46129;BME280;31860;45.186;5.790;2023-04-26T11:28:14;98956.94;;;20.93;37.09
46129;BME280;31860;45.186;5.790;2023-04-26T11:30:40;98956.22;;;20.89;36.81
46129;BME280;31860;45.186;5.790;2023-04-26T11:33:15;98959.72;;;20.90;36.27
46129;BME280;31860;45.186;5.790;2023-04-26T11:35:41;98949.16;;;20.88;37.53
46129;BME280;31860;45.186;5.790;2023-04-26T11:38:08;98952.69;;;20.89;37.24
46129;BME280;31860;45.186;5.790;2023-04-26T11:40:33;98942.97;;;20.88;37.10
46129;BME280;31860;45.186;5.790;2023-04-26T11:43:03;98947.47;;;20.87;37.01
46129;BME280;31860;45.186;5.790;2023-04-26T11:45:35;98942.16;;;20.87;36.06
46129;BME280;31860;45.186;5.790;2023-04-26T11:48:03;98937.81;;;20.85;36.05
46129;BME280;31860;45.186;5.790;2023-04-26T11:50:30;98930.78;;;20.84;35.71
46129;BME280;31860;45.186;5.790;2023-04-26T11:52:59;98937.81;;;20.85;36.26
46129;BME280;31860;45.186;5.790;2023-04-26T11:55:29;98929.00;;;20.84;36.39
46129;BME280;31860;45.186;5.790;2023-04-26T11:58:00;98922.81;;;20.84;36.32
46129;BME280;31860;45.186;5.790;2023-04-26T12:00:26;98916.66;;;20.83;35.84
46129;BME280;31860;45.186;5.790;2023-04-26T12:02:51;98920.16;;;20.84;35.99
46129;BME280;31860;45.186;5.790;2023-04-26T12:05:25;98920.16;;;20.84;35.00
46129;BME280;31860;45.186;5.790;2023-04-26T12:07:56;98921.97;;;20.83;35.13
46129;BME280;31860;45.186;5.790;2023-04-26T12:10:26;98923.75;;;20.83;34.87
46129;BME280;31860;45.186;5.790;2023-04-26T12:12:53;98923.75;;;20.83;35.33
46129;BME280;31860;45.186;5.790;2023-04-26T12:15:31;98911.44;;;20.82;33.74
46129;BME280;31860;45.186;5.790;2023-04-26T12:18:08;98913.13;;;20.83;33.38
46129;BME280;31860;45.186;5.790;2023-04-26T12:20:36;98913.22;;;20.81;34.55
46129;BME280;31860;45.186;5.790;2023-04-26T12:23:05;98913.22;;;20.81;33.78
46129;BME280;31860;45.186;5.790;2023-04-26T12:25:33;98914.09;;;20.82;34.23
46129;BME280;31860;45.186;5.790;2023-04-26T12:27:59;98916.75;;;20.82;34.35
46129;BME280;31860;45.186;5.790;2023-04-26T12:30:26;98906.13;;;20.82;34.12
46129;BME280;31860;45.186;5.790;2023-04-26T12:32:52;98903.47;;;20.82;34.34
46129;BME280;31860;45.186;5.790;2023-04-26T12:35:18;98902.50;;;20.83;34.04
46129;BME280;31860;45.186;5.790;2023-04-26T12:37:43;98905.09;;;20.84;34.04
46129;BME280;31860;45.186;5.790;2023-04-26T12:40:09;98908.63;;;20.85;33.38
46129;BME280;31860;45.186;5.790;2023-04-26T12:42:36;98907.75;;;20.84;33.21
46129;BME280;31860;45.186;5.790;2023-04-26T12:45:01;98897.13;;;20.84;32.36
46129;BME280;31860;45.186;5.790;2023-04-26T12:47:26;98894.47;;;20.84;31.93
46129;BME280;31860;45.186;5.790;2023-04-26T12:49:52;98896.25;;;20.84;31.91
46129;BME280;31860;45.186;5.790;2023-04-26T12:52:17;98875.97;;;20.83;32.18
46129;BME280;31860;45.186;5.790;2023-04-26T12:54:43;98878.63;;;20.83;32.22
46129;BME280;31860;45.186;5.790;2023-04-26T12:57:09;98882.22;;;20.82;31.91
46129;BME280;31860;45.186;5.790;2023-04-26T12:59:35;98874.25;;;20.82;31.64
46129;BME280;31860;45.186;5.790;2023-04-26T13:02:00;98868.00;;;20.83;31.40
46129;BME280;31860;45.186;5.790;2023-04-26T13:04:27;98868.00;;;20.83;31.13
46129;BME280;31860;45.186;5.790;2023-04-26T13:06:53;98869.78;;;20.82;30.70
46129;BME280;31860;45.186;5.790;2023-04-26T13:09:19;98866.22;;;20.83;30.49
46129;BME280;31860;45.186;5.790;2023-04-26T13:11:44;98860.91;;;20.83;30.60
46129;BME280;31860;45.186;5.790;2023-04-26T13:14:09;98857.38;;;20.83;30.60